Terminal Aerodrome Forecast
Issued by NWS

Home | Current Version | Previous Version | Text Only | Print | Product List | Glossary On
Versions: 1 2 3 4 5 6 7 8 9 10 11 12 13 14 15 16 17 18 19
948
FTUS43 KGRR 232340
TAFMKG
TAF
KMKG 232340Z 2400/2424 10003KT P6SM VCSH OVC050
     FM240600 06004KT P6SM -SHRA OVC025
     FM241100 05004KT 3SM -RA BR OVC015
     FM241500 02009KT 5SM -RA BR OVC025=

USA.gov is the U.S. government's official web portal to all federal, state and local government web resources and services.